Terminal Aerodrome Forecast
Issued by NWS

Home | Current Version | Previous Version | Text Only | Print | Product List | Glossary On
Versions: 1 2 3 4 5 6 7 8 9 10 11 12 13
000
FTUS44 KEPZ 311700
TAFDMN
TAF
KDMN 311739Z 3118/0118 10013G22KT P6SM SCT120 SCT250
     FM312100 12010KT P6SM SCT080 BKN220
     FM010400 08008KT P6SM VCSH SCT050 BKN200
     FM011200 07010KT P6SM SCT040 SCT250=

USA.gov is the U.S. government's official web portal to all federal, state and local government web resources and services.